createdAt,value
2023-05-17T00:11:49.133Z,1865.01099
2023-05-17T00:26:51.196Z,1361.60181
2023-05-17T00:41:53.179Z,1294.48059
2023-05-17T00:56:55.145Z,1123.08179
2023-05-17T01:11:57.162Z,901.34204
2023-05-17T01:26:59.433Z,1057.15918
2023-05-17T01:42:01.378Z,908.53363
2023-05-17T01:57:03.345Z,713.1629
2023-05-17T02:12:05.375Z,610.08392
2023-05-17T02:27:07.425Z,485.43024
2023-05-17T02:42:09.406Z,372.76248
2023-05-17T02:57:11.606Z,263.69049
2023-05-17T03:12:13.634Z,139.0368
2023-05-17T03:27:15.649Z,43.14935
2023-05-17T03:42:17.685Z,9.58875
2023-05-17T03:57:19.694Z,1.19859
2023-05-17T04:12:21.677Z,0
2023-05-17T04:27:23.733Z,0
2023-05-17T04:42:25.696Z,0
2023-05-17T04:57:27.816Z,0
2023-05-17T05:12:29.821Z,0
2023-05-17T05:27:31.831Z,0
2023-05-17T05:42:33.853Z,0
2023-05-17T05:57:36.070Z,0
2023-05-17T06:12:38.195Z,0
2023-05-17T06:27:40.161Z,0
2023-05-17T06:42:42.144Z,0
2023-05-17T06:57:44.184Z,0
2023-05-17T07:12:46.206Z,0
2023-05-17T07:27:48.181Z,0
2023-05-17T07:42:50.166Z,0
2023-05-17T07:57:52.272Z,0
2023-05-17T08:12:54.247Z,0
2023-05-17T08:27:56.239Z,0
2023-05-17T08:42:58.289Z,0
2023-05-17T08:58:00.323Z,0
2023-05-17T09:13:02.502Z,0
2023-05-17T09:28:04.545Z,0
2023-05-17T09:43:06.546Z,0
2023-05-17T09:58:08.552Z,0
2023-05-17T10:13:10.577Z,0
2023-05-17T10:28:12.615Z,0
2023-05-17T10:43:14.564Z,0
2023-05-17T10:58:16.702Z,0
2023-05-17T11:13:18.827Z,0
2023-05-17T11:28:20.876Z,0
2023-05-17T11:43:22.936Z,2.39719
2023-05-17T11:58:24.938Z,16.7803
2023-05-17T12:13:27.083Z,49.14232
2023-05-17T12:28:29.183Z,111.46916
2023-05-17T12:43:31.217Z,186.98053
2023-05-17T12:58:33.219Z,256.49893
2023-05-17T13:13:35.430Z,305.64127
2023-05-17T13:28:37.458Z,396.73434
2023-05-17T13:43:39.458Z,739.53198
2023-05-17T13:58:41.441Z,1138.66345
2023-05-17T14:13:43.433Z,1612.10779
2023-05-17T14:28:45.433Z,2016.03369
2023-05-17T14:43:47.448Z,2220.99316
2023-05-17T14:58:49.474Z,2785.53052
2023-05-17T15:13:51.620Z,3471.12573
2023-05-17T15:28:53.639Z,4129.15332
2023-05-17T15:43:55.655Z,4724.854
2023-05-17T15:58:57.625Z,4841.11768
2023-05-17T16:13:59.784Z,4837.52197
2023-05-17T16:29:01.808Z,5101.2124
2023-05-17T16:44:03.932Z,5442.81152
2023-05-17T16:59:05.967Z,4880.67139
2023-05-17T17:14:08.001Z,5813.17676
2023-05-17T17:29:10.131Z,6060.08691
2023-05-17T17:44:12.203Z,6348.94775
2023-05-17T17:59:14.219Z,6467.6084
2023-05-17T18:14:16.251Z,6372.91992
2023-05-17T18:29:18.270Z,6224.29395
2023-05-17T18:44:20.346Z,4554.65381
2023-05-17T18:59:22.458Z,5971.39111
2023-05-17T19:14:24.562Z,6060.08691
2023-05-17T19:29:26.576Z,5897.07812
2023-05-17T19:44:28.589Z,5887.48975
2023-05-17T19:59:30.553Z,5669.3457
2023-05-17T20:14:32.542Z,5515.92578
2023-05-17T20:29:34.512Z,5298.98047
2023-05-17T20:44:36.537Z,5372.09424
2023-05-17T20:59:38.496Z,5380.48438
2023-05-17T21:14:40.642Z,5288.19287
2023-05-17T21:29:42.712Z,5249.83789
2023-05-17T21:44:44.897Z,5512.33008
2023-05-17T21:59:46.926Z,5748.45264
2023-05-17T22:14:48.892Z,5880.29785
2023-05-17T22:29:50.904Z,6324.97607
2023-05-17T22:44:52.925Z,6440.04102
2023-05-17T22:59:54.986Z,6615.03564
2023-05-17T23:14:56.930Z,7124.4375
2023-05-17T23:29:59.314Z,7464.83789
2023-05-17T23:45:01.523Z,7751.30176
